MSR6679 HECA-EDDF
Flight info
| Callsign | MSR6679 |
|---|---|
| Flight time | N/A |
| Altitude | 40000 |
| Route | MENKU L617 NOZ L551 ANTAR DCT RIGRO DCT FSK UL608 DISOR DCT LONTA UL608 DOLEV DCT LURID DCT ZAG DCT BEDOX DCT SIMBA DCT AKINI T161 DEBHI DEBHI1B |
| Aircraft | A359/H-SDE2E3GHIJ3J4J5LM1ORWXY/LB1D1 |
Departure
| Time | 2026-05-05 11:23 |
|---|---|
| Airport | Cairo International Airport (HECA) |
Arrival
| Time | N/A |
|---|---|
| Airport | Frankfurt Main Airport (EDDF) |
| Time | Latitude | Longitude | Altitude | Speed | Heading |
|---|---|---|---|---|---|
| 2026-05-05 10:55 | 30.11053 | 31.40315 | 381 ft | 0 kts | 16° |
| 2026-05-05 11:12 | 30.11051 | 31.40315 | 380 ft | 3 kts | 16° |
| 2026-05-05 11:13 | 30.11033 | 31.40308 | 380 ft | 3 kts | 25° |
| 2026-05-05 11:13 | 30.11016 | 31.40296 | 380 ft | 3 kts | 46° |
| 2026-05-05 11:13 | 30.11005 | 31.40281 | 380 ft | 2 kts | 50° |
| 2026-05-05 11:13 | 30.10994 | 31.40264 | 380 ft | 3 kts | 64° |
| 2026-05-05 11:14 | 30.10988 | 31.40244 | 380 ft | 3 kts | 84° |
| 2026-05-05 11:14 | 30.10988 | 31.40223 | 380 ft | 3 kts | 104° |
| 2026-05-05 11:14 | 30.10988 | 31.40220 | 380 ft | 0 kts | 107° |
| 2026-05-05 11:17 | 30.10988 | 31.40221 | 380 ft | 1 kts | 107° |
| 2026-05-05 11:17 | 30.10968 | 31.40299 | 380 ft | 19 kts | 107° |
| 2026-05-05 11:17 | 30.10929 | 31.40433 | 380 ft | 16 kts | 122° |
| 2026-05-05 11:17 | 30.10825 | 31.40411 | 380 ft | 20 kts | 230° |
| 2026-05-05 11:18 | 30.10721 | 31.40270 | 380 ft | 26 kts | 229° |
| 2026-05-05 11:18 | 30.10591 | 31.40098 | 380 ft | 31 kts | 228° |
| 2026-05-05 11:18 | 30.10439 | 31.39899 | 380 ft | 35 kts | 229° |
| 2026-05-05 11:18 | 30.10277 | 31.39685 | 380 ft | 33 kts | 228° |
| 2026-05-05 11:19 | 30.10193 | 31.39587 | 380 ft | 11 kts | 210° |
| 2026-05-05 11:19 | 30.10111 | 31.39612 | 380 ft | 15 kts | 143° |
| 2026-05-05 11:19 | 30.10050 | 31.39670 | 380 ft | 0 kts | 140° |
| 2026-05-05 11:19 | 30.10041 | 31.39681 | 380 ft | 0 kts | 135° |
| 2026-05-05 11:20 | 30.10027 | 31.39698 | 380 ft | 8 kts | 128° |
| 2026-05-05 11:21 | 30.10007 | 31.39796 | 380 ft | 18 kts | 86° |
| 2026-05-05 11:21 | 30.10056 | 31.39943 | 376 ft | 3 kts | 49° |
| 2026-05-05 11:21 | 30.10056 | 31.39944 | 376 ft | 0 kts | 49° |
| 2026-05-05 11:22 | 30.10057 | 31.39945 | 376 ft | 3 kts | 49° |
| 2026-05-05 11:23 | 30.10189 | 31.40118 | 380 ft | 68 kts | 49° |
| 2026-05-05 11:23 | 30.10672 | 31.40759 | 379 ft | 144 kts | 49° |
| 2026-05-05 11:23 | 30.11452 | 31.41817 | 574 ft | 193 kts | 46° |
| 2026-05-05 11:23 | 30.12406 | 31.43052 | 995 ft | 219 kts | 45° |
| 2026-05-05 11:24 | 30.13445 | 31.44295 | 1465 ft | 238 kts | 43° |
| 2026-05-05 11:24 | 30.14702 | 31.45573 | 2317 ft | 244 kts | 29° |
| 2026-05-05 11:24 | 30.16328 | 31.46180 | 3002 ft | 251 kts | 1° |
| 2026-05-05 11:24 | 30.18023 | 31.45808 | 3729 ft | 250 kts | 333° |
| 2026-05-05 11:25 | 30.19526 | 31.44798 | 4648 ft | 251 kts | 323° |
| 2026-05-05 11:25 | 30.20873 | 31.43498 | 5583 ft | 254 kts | 317° |
| 2026-05-05 11:25 | 30.22142 | 31.42104 | 6490 ft | 256 kts | 315° |
| 2026-05-05 11:25 | 30.23392 | 31.40622 | 7384 ft | 259 kts | 313° |
| 2026-05-05 11:26 | 30.24617 | 31.39090 | 8345 ft | 261 kts | 312° |
| 2026-05-05 11:26 | 30.25838 | 31.37524 | 9326 ft | 263 kts | 312° |
| 2026-05-05 11:26 | 30.27066 | 31.35940 | 10281 ft | 266 kts | 312° |
| 2026-05-05 11:26 | 30.28344 | 31.34296 | 10829 ft | 285 kts | 312° |
| 2026-05-05 11:27 | 30.29722 | 31.32530 | 11242 ft | 306 kts | 311° |
| 2026-05-05 11:27 | 30.31194 | 31.30646 | 11657 ft | 325 kts | 311° |
| 2026-05-05 11:27 | 30.32739 | 31.28677 | 12268 ft | 335 kts | 311° |
| 2026-05-05 11:27 | 30.34327 | 31.26660 | 13063 ft | 341 kts | 311° |
| 2026-05-05 11:28 | 30.35940 | 31.24614 | 13798 ft | 347 kts | 311° |
| 2026-05-05 11:28 | 30.37574 | 31.22531 | 14481 ft | 351 kts | 310° |
| 2026-05-05 11:28 | 30.39197 | 31.20464 | 15272 ft | 352 kts | 310° |
| 2026-05-05 11:28 | 30.40845 | 31.18366 | 16061 ft | 352 kts | 310° |
| 2026-05-05 11:29 | 30.42493 | 31.16264 | 16866 ft | 353 kts | 310° |
| 2026-05-05 11:29 | 30.44146 | 31.14155 | 17691 ft | 354 kts | 309° |
| 2026-05-05 11:29 | 30.45802 | 31.12038 | 18467 ft | 355 kts | 309° |
| 2026-05-05 11:29 | 30.47467 | 31.09908 | 19099 ft | 358 kts | 309° |
| 2026-05-05 11:30 | 30.49146 | 31.07758 | 19717 ft | 362 kts | 309° |
| 2026-05-05 11:30 | 30.50821 | 31.05613 | 20350 ft | 365 kts | 309° |
| 2026-05-05 11:30 | 30.52529 | 31.03426 | 20986 ft | 368 kts | 309° |
| 2026-05-05 11:30 | 30.54253 | 31.01217 | 21657 ft | 371 kts | 309° |
| 2026-05-05 11:31 | 30.55992 | 30.98989 | 22353 ft | 374 kts | 309° |
| 2026-05-05 11:31 | 30.57744 | 30.96744 | 22875 ft | 376 kts | 309° |
| 2026-05-05 11:31 | 30.59503 | 30.94487 | 23139 ft | 378 kts | 309° |
| 2026-05-05 11:31 | 30.61280 | 30.92206 | 23680 ft | 383 kts | 309° |
| 2026-05-05 11:32 | 30.63064 | 30.89915 | 24323 ft | 384 kts | 309° |
| 2026-05-05 11:32 | 30.64859 | 30.87609 | 24974 ft | 385 kts | 309° |
| 2026-05-05 11:32 | 30.66635 | 30.85327 | 25607 ft | 387 kts | 308° |
| 2026-05-05 11:32 | 30.68439 | 30.83006 | 26223 ft | 388 kts | 308° |
| 2026-05-05 11:33 | 30.70253 | 30.80669 | 26825 ft | 391 kts | 308° |
| 2026-05-05 11:33 | 30.72077 | 30.78318 | 27437 ft | 393 kts | 308° |
| 2026-05-05 11:33 | 30.73910 | 30.75953 | 28032 ft | 395 kts | 308° |
| 2026-05-05 11:33 | 30.75753 | 30.73575 | 28636 ft | 397 kts | 308° |
| 2026-05-05 11:34 | 30.77613 | 30.71174 | 29021 ft | 402 kts | 308° |
| 2026-05-05 11:34 | 30.79495 | 30.68739 | 29386 ft | 407 kts | 308° |
| 2026-05-05 11:34 | 30.81395 | 30.66281 | 29820 ft | 410 kts | 308° |
| 2026-05-05 11:34 | 30.83286 | 30.63836 | 30250 ft | 413 kts | 308° |
| 2026-05-05 11:35 | 30.85214 | 30.61341 | 30577 ft | 416 kts | 308° |
| 2026-05-05 11:35 | 30.87157 | 30.58826 | 30886 ft | 419 kts | 308° |
| 2026-05-05 11:35 | 30.89111 | 30.56295 | 31195 ft | 422 kts | 308° |
| 2026-05-05 11:35 | 30.91082 | 30.53740 | 31514 ft | 425 kts | 308° |
| 2026-05-05 11:36 | 30.93061 | 30.51171 | 31804 ft | 428 kts | 308° |
| 2026-05-05 11:36 | 30.95050 | 30.48589 | 32097 ft | 430 kts | 308° |
| 2026-05-05 11:36 | 30.97057 | 30.45982 | 32382 ft | 432 kts | 308° |
| 2026-05-05 11:36 | 30.98993 | 30.43465 | 32760 ft | 432 kts | 308° |
| 2026-05-05 11:37 | 31.00996 | 30.40863 | 33175 ft | 431 kts | 307° |
| 2026-05-05 11:37 | 31.02995 | 30.38263 | 33569 ft | 431 kts | 307° |
| 2026-05-05 11:37 | 31.04991 | 30.35664 | 33979 ft | 430 kts | 307° |
| 2026-05-05 11:37 | 31.06923 | 30.33011 | 34327 ft | 427 kts | 303° |
| 2026-05-05 11:38 | 31.08583 | 30.30162 | 34672 ft | 423 kts | 297° |
| 2026-05-05 11:38 | 31.09913 | 30.27110 | 35016 ft | 420 kts | 291° |
| 2026-05-05 11:38 | 31.10991 | 30.23953 | 35350 ft | 419 kts | 288° |
| 2026-05-05 11:38 | 31.11911 | 30.20803 | 35669 ft | 418 kts | 287° |
| 2026-05-05 11:39 | 31.12782 | 30.17548 | 35989 ft | 417 kts | 286° |
| 2026-05-05 11:39 | 31.13622 | 30.14308 | 36316 ft | 417 kts | 285° |
| 2026-05-05 11:39 | 31.14465 | 30.11064 | 36616 ft | 417 kts | 286° |
| 2026-05-05 11:39 | 31.15315 | 30.07834 | 36910 ft | 416 kts | 286° |
| 2026-05-05 11:40 | 31.16193 | 30.04610 | 37212 ft | 416 kts | 288° |
| 2026-05-05 11:40 | 31.17295 | 30.01486 | 37500 ft | 418 kts | 294° |
| 2026-05-05 11:40 | 31.18723 | 29.98527 | 37784 ft | 420 kts | 300° |
| 2026-05-05 11:40 | 31.20466 | 29.95828 | 38020 ft | 424 kts | 307° |
| 2026-05-05 11:41 | 31.22559 | 29.93380 | 38283 ft | 429 kts | 314° |
| 2026-05-05 11:41 | 31.24965 | 29.91273 | 38550 ft | 435 kts | 321° |
| 2026-05-05 11:41 | 31.27588 | 29.89476 | 38761 ft | 438 kts | 324° |
| 2026-05-05 11:41 | 31.30269 | 29.87772 | 38954 ft | 439 kts | 325° |
| 2026-05-05 11:42 | 31.32977 | 29.86102 | 39113 ft | 440 kts | 325° |
| 2026-05-05 11:42 | 31.35691 | 29.84440 | 39280 ft | 440 kts | 325° |
| 2026-05-05 11:42 | 31.38403 | 29.82776 | 39436 ft | 441 kts | 325° |
| 2026-05-05 11:42 | 31.41118 | 29.81097 | 39596 ft | 441 kts | 325° |
| 2026-05-05 11:43 | 31.43787 | 29.79435 | 39744 ft | 441 kts | 325° |
| 2026-05-05 11:43 | 31.46494 | 29.77741 | 39892 ft | 441 kts | 325° |
| 2026-05-05 11:43 | 31.49201 | 29.76042 | 40032 ft | 442 kts | 325° |
| 2026-05-05 11:44 | 31.54623 | 29.72632 | 40103 ft | 442 kts | 325° |
| 2026-05-05 11:44 | 31.60047 | 29.69217 | 40108 ft | 442 kts | 325° |
| 2026-05-05 11:45 | 31.65426 | 29.65827 | 40112 ft | 442 kts | 325° |
| 2026-05-05 11:45 | 31.70849 | 29.62406 | 40107 ft | 442 kts | 325° |
| 2026-05-05 11:46 | 31.76272 | 29.58980 | 40111 ft | 442 kts | 325° |
| 2026-05-05 11:46 | 31.81671 | 29.55562 | 40107 ft | 447 kts | 325° |
| 2026-05-05 11:47 | 31.87178 | 29.52068 | 40104 ft | 453 kts | 325° |
| 2026-05-05 11:47 | 31.92747 | 29.48535 | 40105 ft | 456 kts | 326° |
| 2026-05-05 11:48 | 32.01136 | 29.43211 | 40103 ft | 457 kts | 326° |
| 2026-05-05 11:48 | 32.06722 | 29.39660 | 40099 ft | 456 kts | 326° |
| 2026-05-05 11:49 | 32.12264 | 29.36126 | 40102 ft | 456 kts | 326° |
| 2026-05-05 11:49 | 32.17848 | 29.32559 | 40103 ft | 456 kts | 326° |
| 2026-05-05 11:50 | 32.23434 | 29.28988 | 40104 ft | 456 kts | 326° |
| 2026-05-05 11:50 | 32.29016 | 29.25411 | 40104 ft | 457 kts | 326° |
| 2026-05-05 11:51 | 32.34562 | 29.21851 | 40097 ft | 457 kts | 326° |
| 2026-05-05 11:51 | 32.40150 | 29.18259 | 40102 ft | 457 kts | 326° |
| 2026-05-05 11:52 | 32.45740 | 29.14661 | 40103 ft | 458 kts | 326° |
| 2026-05-05 11:52 | 32.51337 | 29.11055 | 40102 ft | 458 kts | 326° |
| 2026-05-05 11:53 | 32.56898 | 29.07466 | 40101 ft | 458 kts | 326° |
| 2026-05-05 11:53 | 32.62495 | 29.03848 | 40098 ft | 459 kts | 326° |
| 2026-05-05 11:54 | 32.68099 | 29.00222 | 40102 ft | 459 kts | 326° |
| 2026-05-05 11:54 | 32.73703 | 28.96589 | 40100 ft | 459 kts | 326° |
| 2026-05-05 11:55 | 32.79280 | 28.92970 | 40094 ft | 459 kts | 326° |
| 2026-05-05 11:55 | 32.84894 | 28.89321 | 40095 ft | 460 kts | 326° |
| 2026-05-05 11:56 | 32.90502 | 28.85670 | 40097 ft | 460 kts | 326° |
| 2026-05-05 11:56 | 32.96111 | 28.82014 | 40095 ft | 460 kts | 326° |
| 2026-05-05 11:57 | 33.00773 | 28.78970 | 40092 ft | 460 kts | 326° |
| 2026-05-05 11:57 | 33.07294 | 28.74708 | 40090 ft | 460 kts | 327° |
| 2026-05-05 11:58 | 33.12897 | 28.71039 | 40093 ft | 460 kts | 327° |
| 2026-05-05 11:58 | 33.17554 | 28.67985 | 40089 ft | 460 kts | 327° |
| 2026-05-05 11:59 | 33.23162 | 28.64304 | 40090 ft | 460 kts | 327° |
| 2026-05-05 11:59 | 33.28761 | 28.60622 | 40089 ft | 459 kts | 327° |
| 2026-05-05 12:00 | 33.34358 | 28.56936 | 40090 ft | 459 kts | 327° |
| 2026-05-05 12:00 | 33.39921 | 28.53268 | 40089 ft | 459 kts | 327° |
| 2026-05-05 12:01 | 33.45517 | 28.49572 | 40089 ft | 459 kts | 327° |
| 2026-05-05 12:01 | 33.52020 | 28.45270 | 40088 ft | 459 kts | 327° |
| 2026-05-05 12:02 | 33.56707 | 28.42165 | 40086 ft | 459 kts | 327° |
| 2026-05-05 12:02 | 33.62259 | 28.38482 | 40090 ft | 459 kts | 327° |
| 2026-05-05 12:03 | 33.67846 | 28.34770 | 40086 ft | 459 kts | 327° |
| 2026-05-05 12:03 | 33.73435 | 28.31051 | 40084 ft | 459 kts | 327° |
| 2026-05-05 12:04 | 33.79024 | 28.27327 | 40086 ft | 459 kts | 327° |
| 2026-05-05 12:04 | 33.84633 | 28.23740 | 40095 ft | 461 kts | 329° |
| 2026-05-05 12:05 | 33.90402 | 28.20346 | 40091 ft | 461 kts | 330° |
| 2026-05-05 12:05 | 33.96168 | 28.16955 | 40085 ft | 461 kts | 330° |
| 2026-05-05 12:06 | 34.01912 | 28.13523 | 40092 ft | 461 kts | 329° |
| 2026-05-05 12:06 | 34.07653 | 28.10063 | 40076 ft | 461 kts | 329° |
| 2026-05-05 12:07 | 34.13348 | 28.06622 | 40077 ft | 461 kts | 329° |
| 2026-05-05 12:07 | 34.19083 | 28.03153 | 40079 ft | 461 kts | 330° |
| 2026-05-05 12:08 | 34.24814 | 27.99683 | 40078 ft | 461 kts | 330° |
| 2026-05-05 12:08 | 34.30553 | 27.96204 | 40076 ft | 461 kts | 330° |
| 2026-05-05 12:09 | 34.36245 | 27.92747 | 40076 ft | 461 kts | 330° |
| 2026-05-05 12:09 | 34.41970 | 27.89265 | 40077 ft | 461 kts | 330° |
| 2026-05-05 12:10 | 34.47698 | 27.85776 | 40074 ft | 461 kts | 330° |
| 2026-05-05 12:10 | 34.53421 | 27.82284 | 40070 ft | 460 kts | 330° |
| 2026-05-05 12:11 | 34.59140 | 27.78790 | 40072 ft | 460 kts | 330° |
| 2026-05-05 12:11 | 34.64822 | 27.75312 | 40074 ft | 461 kts | 330° |
| 2026-05-05 12:12 | 34.70542 | 27.71806 | 40072 ft | 461 kts | 330° |
| 2026-05-05 12:12 | 34.76266 | 27.68292 | 40069 ft | 461 kts | 330° |
| 2026-05-05 12:13 | 34.81950 | 27.64797 | 40073 ft | 461 kts | 330° |
| 2026-05-05 12:13 | 34.87670 | 27.61275 | 40068 ft | 461 kts | 330° |
| 2026-05-05 12:14 | 34.93383 | 27.57752 | 40070 ft | 460 kts | 330° |
| 2026-05-05 12:14 | 34.99092 | 27.54225 | 40066 ft | 460 kts | 330° |
| 2026-05-05 12:15 | 35.04800 | 27.50694 | 40067 ft | 460 kts | 330° |
| 2026-05-05 12:15 | 35.10464 | 27.47183 | 40065 ft | 459 kts | 330° |
| 2026-05-05 12:16 | 35.16159 | 27.43649 | 40063 ft | 459 kts | 330° |
| 2026-05-05 12:16 | 35.21851 | 27.40110 | 40058 ft | 459 kts | 330° |
| 2026-05-05 12:17 | 35.27549 | 27.36562 | 40054 ft | 460 kts | 330° |
| 2026-05-05 12:17 | 35.32439 | 27.33514 | 40053 ft | 460 kts | 330° |
| 2026-05-05 12:18 | 35.38144 | 27.29951 | 40051 ft | 460 kts | 330° |
| 2026-05-05 12:18 | 35.43770 | 27.26432 | 40048 ft | 461 kts | 330° |
| 2026-05-05 12:19 | 35.49478 | 27.22856 | 40047 ft | 461 kts | 330° |
| 2026-05-05 12:19 | 35.55146 | 27.19300 | 40052 ft | 461 kts | 330° |
| 2026-05-05 12:20 | 35.60850 | 27.15715 | 40052 ft | 461 kts | 330° |
| 2026-05-05 12:20 | 35.66556 | 27.12124 | 40056 ft | 461 kts | 330° |
| 2026-05-05 12:21 | 35.72221 | 27.08552 | 40059 ft | 461 kts | 330° |
| 2026-05-05 12:21 | 35.77924 | 27.04950 | 40064 ft | 461 kts | 330° |
| 2026-05-05 12:22 | 35.83625 | 27.01343 | 40064 ft | 461 kts | 330° |
| 2026-05-05 12:22 | 35.89324 | 26.97733 | 40063 ft | 460 kts | 330° |
| 2026-05-05 12:23 | 35.94983 | 26.94141 | 40065 ft | 460 kts | 330° |
| 2026-05-05 12:23 | 36.00675 | 26.90523 | 40066 ft | 460 kts | 330° |
| 2026-05-05 12:24 | 36.06367 | 26.86899 | 40067 ft | 460 kts | 330° |
| 2026-05-05 12:24 | 36.12055 | 26.83272 | 40056 ft | 460 kts | 330° |
| 2026-05-05 12:25 | 36.17700 | 26.79666 | 40061 ft | 460 kts | 330° |
| 2026-05-05 12:25 | 36.23381 | 26.76032 | 40077 ft | 459 kts | 330° |
| 2026-05-05 12:26 | 36.29059 | 26.72393 | 40069 ft | 459 kts | 330° |
| 2026-05-05 12:26 | 36.34731 | 26.68752 | 40065 ft | 459 kts | 330° |
| 2026-05-05 12:27 | 36.40359 | 26.65133 | 40069 ft | 459 kts | 330° |
| 2026-05-05 12:27 | 36.46027 | 26.61482 | 40069 ft | 459 kts | 330° |
| 2026-05-05 12:28 | 36.51692 | 26.57828 | 40069 ft | 459 kts | 330° |
| 2026-05-05 12:28 | 36.57360 | 26.54166 | 40067 ft | 459 kts | 330° |
| 2026-05-05 12:29 | 36.62981 | 26.50527 | 40079 ft | 459 kts | 330° |
| 2026-05-05 12:29 | 36.68642 | 26.46857 | 40070 ft | 459 kts | 330° |
| 2026-05-05 12:30 | 36.74301 | 26.43182 | 40074 ft | 459 kts | 330° |
| 2026-05-05 12:30 | 36.79958 | 26.39502 | 40071 ft | 459 kts | 330° |
| 2026-05-05 12:31 | 36.85576 | 26.35841 | 40071 ft | 459 kts | 330° |
| 2026-05-05 12:31 | 36.91238 | 26.32146 | 40076 ft | 459 kts | 330° |
| 2026-05-05 12:32 | 36.96890 | 26.28450 | 40074 ft | 459 kts | 330° |
| 2026-05-05 12:32 | 37.02547 | 26.24745 | 40076 ft | 459 kts | 330° |
| 2026-05-05 12:33 | 37.08162 | 26.21062 | 40073 ft | 459 kts | 330° |
| 2026-05-05 12:33 | 37.13812 | 26.17349 | 40078 ft | 459 kts | 330° |
| 2026-05-05 12:34 | 37.19464 | 26.13629 | 40077 ft | 459 kts | 330° |
| 2026-05-05 12:34 | 37.25112 | 26.09905 | 40082 ft | 459 kts | 330° |
| 2026-05-05 12:35 | 37.30727 | 26.06196 | 40079 ft | 459 kts | 330° |
| 2026-05-05 12:35 | 37.36377 | 26.02458 | 40080 ft | 459 kts | 330° |
| 2026-05-05 12:36 | 37.42025 | 25.98715 | 40081 ft | 459 kts | 330° |
| 2026-05-05 12:36 | 37.47634 | 25.94991 | 40077 ft | 459 kts | 330° |
| 2026-05-05 12:37 | 37.53280 | 25.91237 | 40078 ft | 459 kts | 330° |
| 2026-05-05 12:37 | 37.58919 | 25.87481 | 40080 ft | 459 kts | 330° |
| 2026-05-05 12:38 | 37.64215 | 25.83650 | 40081 ft | 458 kts | 327° |
| 2026-05-05 12:38 | 37.69604 | 25.79336 | 40077 ft | 458 kts | 326° |
| 2026-05-05 12:39 | 37.74960 | 25.75063 | 40078 ft | 458 kts | 327° |
| 2026-05-05 12:39 | 37.80377 | 25.70813 | 40080 ft | 459 kts | 327° |
| 2026-05-05 12:40 | 37.85809 | 25.66577 | 40078 ft | 459 kts | 327° |
| 2026-05-05 12:40 | 37.91231 | 25.62345 | 40087 ft | 451 kts | 327° |
| 2026-05-05 12:41 | 37.93808 | 25.60333 | 40092 ft | 429 kts | 327° |
| 2026-05-05 12:41 | 37.96282 | 25.58400 | 40072 ft | 407 kts | 327° |
| 2026-05-05 12:41 | 37.98626 | 25.56566 | 40071 ft | 385 kts | 327° |
| 2026-05-05 12:41 | 38.00844 | 25.54828 | 40071 ft | 365 kts | 327° |
| 2026-05-05 12:42 | 38.02949 | 25.53176 | 40071 ft | 346 kts | 327° |
| 2026-05-05 12:42 | 38.04953 | 25.51601 | 40070 ft | 333 kts | 327° |
| 2026-05-05 12:42 | 38.08776 | 25.48591 | 40071 ft | 315 kts | 326° |
| 2026-05-05 12:43 | 38.12400 | 25.45734 | 40068 ft | 302 kts | 326° |
| 2026-05-05 12:43 | 38.14168 | 25.44340 | 40068 ft | 296 kts | 326° |
| 2026-05-05 12:43 | 38.15900 | 25.42974 | 40069 ft | 290 kts | 326° |
| 2026-05-05 12:44 | 38.17601 | 25.41632 | 40072 ft | 285 kts | 326° |
| 2026-05-05 12:44 | 38.19266 | 25.40318 | 40070 ft | 279 kts | 326° |
| 2026-05-05 12:44 | 38.20901 | 25.39027 | 40068 ft | 274 kts | 326° |
| 2026-05-05 12:44 | 38.22507 | 25.37758 | 40067 ft | 269 kts | 326° |
| 2026-05-05 12:45 | 38.24060 | 25.36531 | 40065 ft | 264 kts | 326° |
| 2026-05-05 12:45 | 38.25607 | 25.35307 | 40069 ft | 259 kts | 326° |
| 2026-05-05 12:45 | 38.27122 | 25.34109 | 40069 ft | 254 kts | 326° |
| 2026-05-05 12:45 | 38.28609 | 25.32932 | 40062 ft | 249 kts | 326° |
| 2026-05-05 12:46 | 38.30068 | 25.31776 | 40066 ft | 244 kts | 326° |
| 2026-05-05 12:46 | 38.31495 | 25.30646 | 40065 ft | 239 kts | 326° |
| 2026-05-05 12:46 | 38.32893 | 25.29538 | 40064 ft | 234 kts | 326° |
| 2026-05-05 12:46 | 38.34262 | 25.28453 | 40063 ft | 229 kts | 326° |
| 2026-05-05 12:47 | 38.35585 | 25.27403 | 40062 ft | 225 kts | 326° |
| 2026-05-05 12:47 | 38.36896 | 25.26362 | 40065 ft | 220 kts | 326° |
| 2026-05-05 12:47 | 38.38177 | 25.25345 | 40060 ft | 214 kts | 326° |
| 2026-05-05 12:47 | 38.39426 | 25.24354 | 40057 ft | 209 kts | 326° |
| 2026-05-05 12:48 | 38.40644 | 25.23386 | 40057 ft | 203 kts | 326° |
| 2026-05-05 12:48 | 38.41825 | 25.22447 | 40051 ft | 197 kts | 326° |
| 2026-05-05 12:48 | 38.42968 | 25.21538 | 40047 ft | 190 kts | 326° |
| 2026-05-05 12:48 | 38.44065 | 25.20667 | 40037 ft | 182 kts | 326° |
| 2026-05-05 12:49 | 38.45126 | 25.19827 | 39900 ft | 182 kts | 326° |
| 2026-05-05 12:49 | 38.46233 | 25.18944 | 39278 ft | 205 kts | 326° |
| 2026-05-05 12:49 | 38.47601 | 25.17831 | 37712 ft | 257 kts | 326° |